Time;durP1;ratioP1;P1;durP2;ratioP2;P2;SDS_P1;SDS_P2;PMS_P1;PMS_P2;Temp;Humidity;BMP_temperature;BMP_pressure;BME280_temperature;BME280_humidity;BME280_pressure;Samples;Min_cycle;Max_cycle;Signal;HPM_P1;HPM_P2
2021/12/15 00:01:47;;;;;;;6.90;6.20;;;18.50;57.40;;;;;;5049196;28;20482;-82
2021/12/15 00:04:16;;;;;;;6.10;5.50;;;18.50;57.40;;;;;;5043283;28;20536;-82
2021/12/15 00:06:43;;;;;;;8.10;6.27;;;18.60;57.50;;;;;;5047967;28;20482;-81
2021/12/15 00:09:12;;;;;;;6.27;5.67;;;18.60;57.50;;;;;;5047287;28;20446;-82
2021/12/15 00:11:41;;;;;;;7.20;5.93;;;18.60;57.50;;;;;;5048987;28;20538;-82
2021/12/15 00:14:10;;;;;;;6.80;6.00;;;18.60;57.40;;;;;;5051299;28;20483;-82
2021/12/15 00:16:39;;;;;;;6.70;6.00;;;18.60;57.50;;;;;;5050307;28;20486;-81
2021/12/15 00:19:08;;;;;;;7.50;6.10;;;18.60;57.50;;;;;;5051725;28;20482;-82
2021/12/15 00:21:36;;;;;;;6.70;6.03;;;18.60;57.40;;;;;;5049356;28;20511;-81
2021/12/15 00:24:05;;;;;;;7.33;6.57;;;18.60;57.60;;;;;;5045538;28;20505;-81
2021/12/15 00:26:34;;;;;;;7.40;6.07;;;18.60;57.50;;;;;;5044566;28;20525;-81
2021/12/15 00:29:04;;;;;;;7.10;6.13;;;18.60;57.50;;;;;;5053418;28;20459;-81
2021/12/15 00:31:33;;;;;;;6.30;5.70;;;18.60;57.50;;;;;;5052524;28;20473;-81
2021/12/15 00:34:01;;;;;;;7.77;6.03;;;18.60;57.80;;;;;;5054332;28;20457;-82
2021/12/15 00:36:30;;;;;;;6.60;6.00;;;18.60;57.50;;;;;;5055510;28;20537;-81
2021/12/15 00:38:58;;;;;;;6.77;5.93;;;18.60;57.40;;;;;;5054934;28;20526;-81
2021/12/15 00:41:26;;;;;;;6.67;6.03;;;18.60;57.40;;;;;;5055113;28;20470;-81
2021/12/15 00:43:55;;;;;;;8.73;5.70;;;18.60;57.50;;;;;;5055509;28;20473;-82
2021/12/15 00:46:22;;;;;;;7.00;6.23;;;18.60;57.50;;;;;;5055777;28;20442;-82
2021/12/15 00:48:51;;;;;;;8.10;6.10;;;18.60;57.50;;;;;;5054924;28;20438;-82
2021/12/15 00:51:20;;;;;;;8.00;6.13;;;18.60;57.50;;;;;;5055241;28;20897;-82
2021/12/15 00:53:49;;;;;;;6.33;5.70;;;18.60;57.50;;;;;;5056151;28;20496;-83
2021/12/15 00:56:17;;;;;;;7.07;6.33;;;18.60;57.60;;;;;;5057287;28;20458;-82
2021/12/15 00:58:46;;;;;;;6.60;5.97;;;18.60;57.50;;;;;;5059704;28;20454;-84
2021/12/15 01:01:14;;;;;;;7.17;5.87;;;18.60;57.50;;;;;;5057457;28;20900;-84
2021/12/15 01:03:42;;;;;;;7.60;6.00;;;18.60;57.50;;;;;;5057103;28;20462;-85
2021/12/15 01:06:12;;;;;;;7.10;6.03;;;18.70;57.60;;;;;;5058608;28;20877;-83
2021/12/15 01:08:46;;;;;;;13.23;5.70;;;18.60;57.50;;;;;;5050733;28;20452;-84
2021/12/15 01:11:24;;;;;;;8.03;6.50;;;18.60;57.50;;;;;;5057527;28;20453;-83
2021/12/15 01:22:12;;;;;;;7.43;6.27;;;18.60;57.60;;;;;;5036477;28;20517;-83
2021/12/15 01:24:40;;;;;;;7.77;5.60;;;18.60;57.50;;;;;;5045761;28;20467;-82
2021/12/15 01:27:10;;;;;;;7.70;5.80;;;18.60;57.60;;;;;;5053242;28;20462;-83
2021/12/15 01:29:38;;;;;;;6.43;5.73;;;18.60;57.60;;;;;;5059521;28;20458;-83
2021/12/15 01:32:07;;;;;;;9.43;5.80;;;18.60;57.50;;;;;;5063429;28;20462;-81
2021/12/15 01:34:35;;;;;;;7.67;6.23;;;18.60;57.50;;;;;;5062231;28;20487;-83
2021/12/15 01:37:03;;;;;;;8.80;6.90;;;18.60;57.60;;;;;;5061652;28;20530;-83
2021/12/15 01:39:31;;;;;;;6.93;6.23;;;18.60;57.50;;;;;;5058612;28;20426;-82
2021/12/15 01:42:00;;;;;;;6.43;5.80;;;18.70;57.60;;;;;;5065280;28;20486;-84
2021/12/15 01:47:15;;;;;;;7.20;6.33;;;18.60;57.50;;;;;;5059804;28;20530;-82
2021/12/15 01:49:45;;;;;;;8.47;6.40;;;18.60;57.60;;;;;;5065614;28;20433;-83
2021/12/15 01:52:14;;;;;;;8.17;6.50;;;18.60;57.60;;;;;;5066414;28;20454;-83
2021/12/15 01:54:44;;;;;;;6.50;5.80;;;18.70;57.70;;;;;;5055724;28;20502;-83
2021/12/15 01:57:12;;;;;;;11.10;6.30;;;18.70;57.60;;;;;;5061377;28;20466;-83
2021/12/15 01:59:42;;;;;;;8.07;6.37;;;18.60;57.60;;;;;;5060843;28;20442;-83
2021/12/15 02:02:10;;;;;;;7.80;6.10;;;18.70;57.60;;;;;;5059202;28;20505;-83
2021/12/15 02:04:39;;;;;;;15.73;7.10;;;18.70;57.50;;;;;;5061063;28;20470;-83
2021/12/15 02:07:08;;;;;;;8.60;6.37;;;18.70;57.60;;;;;;5043646;28;20435;-83
2021/12/15 02:10:01;;;;;;;7.13;6.37;;;18.70;57.60;;;;;;5040527;28;20443;-82
2021/12/15 02:12:49;;;;;;;10.17;7.33;;;18.70;57.50;;;;;;5044247;28;20452;-81
2021/12/15 02:15:22;;;;;;;7.20;6.00;;;18.70;57.60;;;;;;5044734;28;20473;-81
2021/12/15 02:17:51;;;;;;;9.30;6.87;;;18.70;57.60;;;;;;5047876;28;20451;-81
2021/12/15 02:20:20;;;;;;;9.03;6.60;;;18.70;57.60;;;;;;5058092;28;20442;-81
2021/12/15 02:22:49;;;;;;;8.60;6.50;;;18.70;57.60;;;;;;5058136;28;20510;-81
2021/12/15 02:25:17;;;;;;;7.00;6.17;;;18.70;57.60;;;;;;5052711;28;20458;-81
2021/12/15 02:27:45;;;;;;;8.60;6.33;;;18.70;57.70;;;;;;5040732;28;20823;-82
2021/12/15 02:30:25;;;;;;;7.30;6.47;;;18.70;57.60;;;;;;5040230;28;20471;-81
2021/12/15 02:33:05;;;;;;;9.37;6.40;;;18.70;57.60;;;;;;5043762;28;20475;-82
2021/12/15 02:38:17;;;;;;;10.10;6.90;;;18.70;57.60;;;;;;5033603;28;20537;-81
2021/12/15 02:40:46;;;;;;;10.00;7.20;;;18.70;57.60;;;;;;5060896;28;20441;-82
2021/12/15 02:43:14;;;;;;;9.23;7.43;;;18.70;57.60;;;;;;5059779;28;20496;-81
2021/12/15 02:45:42;;;;;;;12.50;8.30;;;18.70;57.60;;;;;;5059977;28;20485;-82
2021/12/15 02:48:10;;;;;;;9.30;7.13;;;18.70;57.50;;;;;;5060170;28;20969;-83
2021/12/15 02:50:38;;;;;;;9.63;7.30;;;18.70;57.60;;;;;;5062209;28;20427;-83
2021/12/15 02:53:07;;;;;;;8.80;6.57;;;18.70;57.60;;;;;;5056246;28;20486;-82
2021/12/15 02:55:37;;;;;;;9.10;6.70;;;18.80;57.70;;;;;;5063060;28;20446;-82
2021/12/15 02:58:06;;;;;;;8.37;7.10;;;18.70;57.50;;;;;;5056409;28;20475;-83
2021/12/15 03:00:47;;;;;;;10.13;7.63;;;18.70;57.60;;;;;;5042677;28;20448;-82
2021/12/15 03:03:46;;;;;;;7.70;6.70;;;18.70;57.60;;;;;;5055742;28;20476;-83
2021/12/15 03:06:17;;;;;;;12.30;7.20;;;18.70;57.60;;;;;;5056511;28;20434;-85
2021/12/15 03:08:56;;;;;;;10.87;7.07;;;18.70;57.60;;;;;;5064272;28;20474;-84
2021/12/15 03:16:57;;;;;;;11.93;7.63;;;18.70;57.60;;;;;;5054886;28;20453;-82
2021/12/15 03:19:25;;;;;;;10.00;7.30;;;18.70;57.70;;;;;;5060770;28;20420;-83
2021/12/15 03:21:53;;;;;;;9.77;7.07;;;18.70;57.70;;;;;;5052947;28;20467;-83
2021/12/15 03:24:24;;;;;;;12.87;7.60;;;18.70;57.60;;;;;;5065073;28;20450;-84
2021/12/15 03:26:58;;;;;;;8.67;6.77;;;18.70;57.60;;;;;;5055980;28;20547;-81
2021/12/15 03:35:20;;;;;;;9.30;7.60;;;18.70;57.60;;;;;;5058890;28;20438;-81
2021/12/15 03:37:55;;;;;;;8.80;6.80;;;18.70;57.60;;;;;;5063108;28;20466;-81
2021/12/15 03:40:25;;;;;;;9.27;7.50;;;18.80;57.70;;;;;;5063405;28;20469;-82
2021/12/15 03:42:55;;;;;;;9.80;7.93;;;18.80;57.80;;;;;;5058719;28;20474;-82
2021/12/15 03:45:26;;;;;;;9.77;7.47;;;18.70;57.60;;;;;;5063849;28;20486;-82
2021/12/15 03:47:55;;;;;;;9.70;7.23;;;18.80;57.70;;;;;;5062746;28;20485;-82
2021/12/15 03:50:24;;;;;;;9.97;7.60;;;18.80;57.70;;;;;;5062837;28;20501;-81
2021/12/15 03:52:52;;;;;;;7.73;6.80;;;18.80;57.70;;;;;;5063295;28;20534;-82
2021/12/15 03:55:22;;;;;;;7.63;6.50;;;18.80;57.70;;;;;;5064205;28;20430;-82
2021/12/15 03:57:50;;;;;;;8.30;6.30;;;18.80;57.60;;;;;;5063852;28;20500;-82
2021/12/15 04:00:20;;;;;;;8.43;7.30;;;18.80;57.60;;;;;;5063472;28;20502;-82
2021/12/15 04:02:48;;;;;;;8.10;6.53;;;18.80;57.70;;;;;;5063094;28;20533;-82
2021/12/15 04:05:19;;;;;;;9.67;7.00;;;18.80;57.60;;;;;;5063790;28;20435;-82
2021/12/15 04:07:47;;;;;;;8.60;6.40;;;18.80;58.30;;;;;;5064076;28;20492;-82
2021/12/15 04:10:16;;;;;;;9.60;7.37;;;18.80;57.70;;;;;;5063060;28;20426;-82
2021/12/15 04:12:44;;;;;;;7.23;6.40;;;18.80;57.70;;;;;;5063042;28;20466;-82
2021/12/15 04:15:26;;;;;;;7.57;6.53;;;18.80;57.60;;;;;;5057658;28;20461;-82
2021/12/15 04:17:56;;;;;;;8.63;7.37;;;18.80;57.70;;;;;;5062583;28;20494;-82
2021/12/15 04:20:25;;;;;;;9.90;6.80;;;18.80;57.70;;;;;;5063254;28;20498;-82
2021/12/15 04:22:53;;;;;;;11.00;7.57;;;18.80;57.70;;;;;;5063076;28;20506;-82
2021/12/15 04:25:23;;;;;;;7.07;6.37;;;18.80;57.70;;;;;;5062910;28;20523;-82
2021/12/15 04:27:56;;;;;;;7.73;6.67;;;18.80;57.60;;;;;;5061570;28;20446;-82
2021/12/15 04:30:25;;;;;;;9.63;7.00;;;18.80;57.70;;;;;;5060756;28;20443;-81
2021/12/15 04:32:55;;;;;;;7.83;6.30;;;18.80;57.70;;;;;;5060006;28;20514;-81
2021/12/15 04:35:24;;;;;;;8.33;6.90;;;18.80;57.70;;;;;;5060666;28;20464;-81
2021/12/15 04:37:52;;;;;;;14.90;6.43;;;18.80;57.70;;;;;;5059651;28;20498;-81
2021/12/15 04:40:21;;;;;;;7.83;6.30;;;18.80;57.70;;;;;;5060348;28;20525;-81
2021/12/15 04:42:49;;;;;;;11.03;8.30;;;18.80;57.80;;;;;;5059206;28;20615;-81
2021/12/15 04:45:19;;;;;;;8.87;7.00;;;18.80;57.80;;;;;;5057479;28;20461;-81
2021/12/15 04:47:50;;;;;;;10.53;6.60;;;18.80;57.60;;;;;;5060024;28;20466;-81
2021/12/15 04:50:20;;;;;;;7.87;6.33;;;18.80;57.70;;;;;;5059972;28;20486;-81
2021/12/15 04:52:48;;;;;;;9.00;6.70;;;18.80;57.70;;;;;;5059452;28;20443;-81
2021/12/15 04:55:17;;;;;;;7.17;6.47;;;18.80;57.60;;;;;;5059031;28;20533;-81
2021/12/15 04:57:45;;;;;;;6.97;6.27;;;18.80;57.70;;;;;;5059103;28;20483;-81
2021/12/15 05:00:15;;;;;;;8.13;6.17;;;18.80;57.70;;;;;;5057964;28;20435;-81
2021/12/15 05:02:43;;;;;;;8.37;6.80;;;18.80;57.70;;;;;;5053763;28;20566;-81
2021/12/15 05:05:12;;;;;;;7.03;6.33;;;18.80;57.60;;;;;;5057517;28;20473;-81
2021/12/15 05:07:41;;;;;;;7.60;6.10;;;18.80;57.70;;;;;;5047659;28;20497;-81
2021/12/15 05:10:11;;;;;;;7.17;6.47;;;18.80;57.70;;;;;;5059518;28;20497;-82
2021/12/15 05:12:39;;;;;;;8.90;6.53;;;18.80;57.70;;;;;;5059178;28;20435;-81
2021/12/15 05:15:08;;;;;;;9.37;7.03;;;18.80;57.80;;;;;;5054344;28;21024;-82
2021/12/15 05:17:36;;;;;;;7.33;6.30;;;18.80;57.60;;;;;;5059041;28;20506;-81
2021/12/15 05:20:06;;;;;;;7.03;5.67;;;18.80;57.60;;;;;;5059233;28;20462;-81
2021/12/15 05:22:34;;;;;;;7.47;6.30;;;18.80;57.60;;;;;;5058544;28;20493;-81
2021/12/15 05:25:04;;;;;;;7.43;6.00;;;18.80;57.70;;;;;;5059066;28;20473;-81
2021/12/15 05:27:32;;;;;;;7.87;6.43;;;18.80;57.70;;;;;;5060091;28;20468;-81
2021/12/15 05:30:00;;;;;;;8.67;6.30;;;18.80;57.60;;;;;;5053421;28;20542;-81
2021/12/15 05:32:29;;;;;;;6.53;5.90;;;18.80;57.60;;;;;;5061384;28;20522;-81
2021/12/15 05:34:58;;;;;;;7.77;6.33;;;18.80;57.70;;;;;;5062826;28;20470;-80
2021/12/15 05:37:27;;;;;;;7.30;6.10;;;18.80;57.70;;;;;;5062787;28;20497;-81
2021/12/15 05:39:55;;;;;;;7.73;6.67;;;18.80;57.60;;;;;;5062892;28;20525;-81
2021/12/15 05:42:25;;;;;;;7.63;5.97;;;18.80;57.70;;;;;;5061906;28;20515;-81
2021/12/15 05:44:53;;;;;;;7.83;6.47;;;18.80;57.80;;;;;;5062946;28;20481;-81
2021/12/15 05:47:21;;;;;;;6.77;6.07;;;18.90;57.70;;;;;;5059957;28;20454;-81
2021/12/15 05:49:50;;;;;;;8.07;6.20;;;18.90;57.80;;;;;;5062727;28;20495;-81
2021/12/15 05:52:18;;;;;;;6.77;6.00;;;18.90;57.70;;;;;;5062968;28;20446;-81
2021/12/15 05:54:46;;;;;;;9.83;6.40;;;18.80;57.60;;;;;;5063251;28;20483;-81
2021/12/15 05:57:14;;;;;;;6.17;5.57;;;18.80;57.60;;;;;;5063059;28;20465;-81
2021/12/15 05:59:43;;;;;;;6.40;5.80;;;18.80;57.60;;;;;;5062899;28;20534;-81
2021/12/15 06:02:12;;;;;;;8.20;5.30;;;18.80;57.60;;;;;;5063150;28;20554;-81
2021/12/15 06:04:40;;;;;;;6.20;5.60;;;18.80;57.70;;;;;;5056920;28;20494;-81
2021/12/15 06:07:11;;;;;;;7.40;5.63;;;18.80;57.60;;;;;;5062750;28;20441;-80
2021/12/15 06:09:39;;;;;;;7.60;6.37;;;18.80;57.80;;;;;;5060358;28;20504;-81
2021/12/15 06:12:09;;;;;;;7.30;5.60;;;18.80;57.70;;;;;;5058195;28;20443;-81
2021/12/15 06:14:37;;;;;;;7.00;5.93;;;18.80;57.70;;;;;;5057564;28;20489;-81
2021/12/15 06:17:08;;;;;;;7.27;6.17;;;18.80;57.70;;;;;;5057617;28;20431;-81
2021/12/15 06:19:36;;;;;;;6.60;5.77;;;18.80;57.70;;;;;;5057497;28;20470;-81
2021/12/15 06:22:04;;;;;;;7.37;5.90;;;18.80;57.70;;;;;;5057622;28;20513;-81
2021/12/15 06:24:32;;;;;;;7.40;6.10;;;18.80;57.70;;;;;;5056984;28;20501;-81
2021/12/15 06:27:05;;;;;;;7.93;6.47;;;18.80;57.80;;;;;;5060030;28;20434;-81
2021/12/15 06:29:33;;;;;;;6.23;5.63;;;18.80;57.70;;;;;;5061802;28;20447;-81
2021/12/15 06:32:01;;;;;;;8.00;5.87;;;18.80;57.70;;;;;;5058165;28;20484;-81
2021/12/15 06:34:31;;;;;;;7.87;6.47;;;18.80;57.70;;;;;;5061130;28;20447;-81
2021/12/15 06:37:00;;;;;;;6.50;5.80;;;18.80;57.80;;;;;;5060922;28;20466;-81
2021/12/15 06:39:29;;;;;;;7.30;5.90;;;18.80;57.70;;;;;;5061235;28;20557;-81
2021/12/15 06:41:57;;;;;;;8.13;5.83;;;18.80;57.70;;;;;;5060678;28;20529;-81
2021/12/15 06:44:25;;;;;;;6.93;5.60;;;18.80;57.80;;;;;;5060959;28;20545;-81
2021/12/15 06:58:13;;;;;;;9.67;6.93;;;18.80;57.80;;;;;;5061782;28;20799;-81
2021/12/15 07:00:43;;;;;;;6.97;5.97;;;18.80;57.80;;;;;;5061748;28;20478;-81
2021/12/15 07:03:12;;;;;;;7.77;6.80;;;18.80;57.80;;;;;;5056357;28;20478;-81
2021/12/15 07:05:42;;;;;;;8.37;7.07;;;18.80;57.80;;;;;;5061039;28;20442;-81
2021/12/15 07:08:10;;;;;;;8.50;6.77;;;18.80;57.80;;;;;;5059776;28;20498;-81
2021/12/15 07:10:40;;;;;;;9.80;6.97;;;18.80;57.80;;;;;;5059936;28;21032;-81
2021/12/15 07:13:08;;;;;;;8.40;6.87;;;18.80;57.80;;;;;;5059820;28;20450;-81
2021/12/15 07:15:37;;;;;;;6.90;6.20;;;18.80;57.80;;;;;;5061145;28;20494;-81
2021/12/15 07:18:09;;;;;;;8.50;6.50;;;18.80;57.70;;;;;;5063480;28;20430;-82
2021/12/15 07:20:41;;;;;;;7.47;6.47;;;18.80;57.80;;;;;;5059618;28;20477;-82
2021/12/15 07:23:12;;;;;;;8.63;7.00;;;18.80;57.70;;;;;;5062866;28;20450;-81
2021/12/15 07:25:41;;;;;;;10.07;6.90;;;18.80;57.70;;;;;;5062916;28;20535;-82
2021/12/15 07:28:09;;;;;;;8.90;6.63;;;18.80;57.70;;;;;;5063554;28;20940;-81
2021/12/15 07:30:37;;;;;;;9.63;7.40;;;18.80;57.70;;;;;;5062761;28;20505;-82
2021/12/15 07:33:06;;;;;;;7.80;6.80;;;18.80;57.70;;;;;;5063061;28;20451;-82
2021/12/15 07:35:34;;;;;;;9.03;7.67;;;18.80;57.70;;;;;;5063549;28;20434;-82
2021/12/15 07:38:02;;;;;;;14.37;7.57;;;18.80;57.70;;;;;;5050805;28;20510;-83
2021/12/15 07:40:32;;;;;;;52.67;27.47;;;19.00;58.40;;;;;;5056590;28;20473;-82
2021/12/15 07:43:09;;;;;;;54.10;29.00;;;18.90;56.50;;;;;;5048335;28;20518;-83
2021/12/15 07:45:41;;;;;;;64.07;30.80;;;17.10;59.70;;;;;;5053102;28;20542;-83
2021/12/15 07:48:10;;;;;;;67.93;31.83;;;16.00;65.10;;;;;;5055242;28;20478;-84
2021/12/15 07:50:38;;;;;;;70.37;33.90;;;15.40;67.30;;;;;;5037089;28;20459;-81
2021/12/15 07:53:07;;;;;;;80.60;35.07;;;14.80;68.80;;;;;;5037266;28;20459;-80
2021/12/15 07:55:36;;;;;;;73.93;33.93;;;14.60;70.00;;;;;;5038081;28;20510;-83
2021/12/15 07:58:04;;;;;;;81.07;34.97;;;14.30;72.60;;;;;;5038772;28;20523;-83
2021/12/15 08:00:33;;;;;;;83.73;35.37;;;14.30;73.30;;;;;;5037325;28;20485;-84
2021/12/15 08:03:01;;;;;;;82.20;34.10;;;14.30;74.30;;;;;;5037934;28;20550;-83
2021/12/15 08:05:29;;;;;;;75.67;33.13;;;14.20;75.20;;;;;;5043434;28;20502;-82
2021/12/15 08:07:57;;;;;;;74.00;34.03;;;13.90;79.30;;;;;;5057360;28;20526;-84
2021/12/15 08:10:25;;;;;;;75.00;34.10;;;14.10;77.50;;;;;;5057320;28;20445;-83
2021/12/15 08:12:55;;;;;;;77.47;34.60;;;14.20;77.40;;;;;;5056317;28;20489;-84
2021/12/15 08:15:23;;;;;;;83.60;34.50;;;14.40;77.00;;;;;;5057323;28;20450;-82
2021/12/15 08:17:52;;;;;;;80.70;33.27;;;13.90;79.10;;;;;;5056256;28;20462;-83
2021/12/15 08:20:21;;;;;;;68.87;30.90;;;14.50;83.90;;;;;;5049229;28;20438;-83
2021/12/15 08:22:49;;;;;;;71.33;31.70;;;15.30;81.40;;;;;;5047660;28;20506;-83
2021/12/15 08:25:18;;;;;;;69.57;30.00;;;16.00;77.80;;;;;;5047011;28;20481;-83
2021/12/15 08:27:46;;;;;;;64.37;30.30;;;16.50;75.10;;;;;;5048032;28;20441;-83
2021/12/15 08:30:19;;;;;;;63.97;29.33;;;16.80;72.80;;;;;;5046147;28;20447;-85
2021/12/15 08:32:48;;;;;;;60.33;28.60;;;17.10;70.90;;;;;;5058694;28;20424;-85
2021/12/15 08:35:16;;;;;;;54.83;27.43;;;17.30;69.70;;;;;;5059344;28;20452;-84
2021/12/15 08:37:45;;;;;;;54.63;26.87;;;17.50;68.60;;;;;;5062812;28;20462;-83
2021/12/15 08:40:13;;;;;;;50.30;25.47;;;17.60;67.80;;;;;;5056997;28;20443;-84
2021/12/15 08:42:41;;;;;;;51.60;26.20;;;17.80;67.10;;;;;;5052580;28;20439;-85
2021/12/15 08:45:10;;;;;;;50.40;25.30;;;17.90;66.50;;;;;;5041028;28;20490;-83
2021/12/15 08:47:39;;;;;;;48.50;25.03;;;18.00;66.00;;;;;;5033279;28;20459;-83
2021/12/15 08:50:09;;;;;;;46.37;24.40;;;18.00;66.50;;;;;;5036735;28;20493;-83
2021/12/15 08:52:37;;;;;;;47.70;24.63;;;18.10;65.30;;;;;;5044928;28;20533;-84
2021/12/15 08:55:06;;;;;;;47.93;24.00;;;18.10;65.00;;;;;;5048550;28;20522;-81
2021/12/15 08:57:35;;;;;;;47.13;23.50;;;18.20;64.70;;;;;;5056416;28;20459;-82
2021/12/15 09:00:04;;;;;;;51.50;24.07;;;18.30;64.50;;;;;;5056079;28;20469;-81
2021/12/15 09:02:32;;;;;;;40.47;22.50;;;18.30;64.30;;;;;;5056625;28;20470;-82
2021/12/15 09:05:02;;;;;;;44.33;24.07;;;18.40;64.10;;;;;;5056386;28;20521;-82
2021/12/15 09:07:30;;;;;;;36.80;20.47;;;18.40;64.10;;;;;;5056421;28;20470;-82
2021/12/15 09:09:59;;;;;;;42.70;21.80;;;18.40;63.60;;;;;;5056583;28;20446;-84
2021/12/15 09:12:27;;;;;;;41.57;22.03;;;18.40;63.50;;;;;;5056483;28;20490;-84
2021/12/15 09:14:55;;;;;;;37.90;21.10;;;18.40;63.50;;;;;;5057005;28;20481;-85
2021/12/15 09:17:23;;;;;;;34.50;20.53;;;18.50;64.00;;;;;;5056536;28;20435;-84
2021/12/15 09:19:51;;;;;;;40.27;22.57;;;18.50;63.20;;;;;;5056686;28;20434;-84
2021/12/15 09:22:21;;;;;;;37.50;19.83;;;18.50;63.30;;;;;;5056622;28;20525;-83
2021/12/15 09:24:49;;;;;;;32.93;19.23;;;18.50;63.00;;;;;;5050750;28;20479;-82
2021/12/15 09:27:17;;;;;;;37.77;19.77;;;18.50;63.00;;;;;;5055997;28;20459;-81
2021/12/15 09:29:45;;;;;;;35.00;19.60;;;18.50;62.90;;;;;;5056555;28;20533;-85
2021/12/15 09:32:14;;;;;;;34.30;19.20;;;18.60;63.00;;;;;;5056428;28;20513;-84
2021/12/15 09:34:42;;;;;;;30.67;17.83;;;18.60;62.80;;;;;;5056368;28;20545;-82
2021/12/15 09:37:10;;;;;;;34.17;19.43;;;18.60;62.60;;;;;;5056600;28;20448;-82
2021/12/15 09:39:39;;;;;;;32.17;17.97;;;18.60;62.50;;;;;;5056092;28;20460;-82
2021/12/15 09:42:24;;;;;;;32.93;18.43;;;18.60;62.50;;;;;;5056011;28;20465;-84
2021/12/15 09:44:59;;;;;;;32.13;17.30;;;18.70;62.60;;;;;;5056133;28;20565;-82
2021/12/15 09:47:43;;;;;;;34.43;19.00;;;18.70;62.60;;;;;;5056141;28;20464;-82
2021/12/15 10:04:20;;;;;;;29.00;16.33;;;18.70;62.40;;;;;;5044709;28;20487;-82
2021/12/15 10:07:13;;;;;;;25.13;15.53;;;18.80;62.20;;;;;;5050819;28;20549;-82
2021/12/15 10:17:23;;;;;;;25.07;16.10;;;18.80;62.10;;;;;;5051134;28;20522;-83
2021/12/15 10:18:11;;;;;;;25.10;15.87;;;18.90;62.00;;;;;;5039473;28;20481;-82
2021/12/15 10:20:39;;;;;;;22.57;14.93;;;18.90;62.00;;;;;;5039252;28;20513;-84
2021/12/15 10:23:08;;;;;;;23.43;15.87;;;18.90;62.00;;;;;;5040195;28;20534;-82
2021/12/15 10:25:38;;;;;;;22.47;14.73;;;18.90;61.80;;;;;;5039654;28;20542;-82
2021/12/15 10:28:09;;;;;;;24.80;15.23;;;18.90;61.70;;;;;;5040344;28;20973;-81
2021/12/15 10:30:38;;;;;;;21.87;14.63;;;18.90;61.70;;;;;;5040925;28;20479;-83
2021/12/15 10:33:08;;;;;;;23.43;14.70;;;18.90;61.70;;;;;;5041139;28;20447;-83
2021/12/15 10:35:38;;;;;;;21.53;14.47;;;19.00;61.60;;;;;;5041172;28;20432;-83
2021/12/15 10:38:18;;;;;;;25.73;13.67;;;19.00;61.80;;;;;;5041440;28;20451;-82
2021/12/15 10:40:48;;;;;;;22.53;14.20;;;19.00;61.60;;;;;;5060633;28;20522;-82
2021/12/15 10:43:18;;;;;;;23.13;14.40;;;19.00;61.80;;;;;;5060483;28;20518;-82
2021/12/15 10:45:48;;;;;;;21.23;14.50;;;19.00;61.60;;;;;;5061020;28;20573;-82
2021/12/15 10:48:25;;;;;;;21.90;14.23;;;19.00;61.60;;;;;;5060787;28;20437;-82
2021/12/15 10:50:53;;;;;;;21.07;13.90;;;19.10;61.50;;;;;;5060755;28;20434;-82
2021/12/15 10:53:32;;;;;;;18.80;13.07;;;19.10;61.40;;;;;;5060898;28;20546;-82
2021/12/15 10:56:02;;;;;;;22.73;13.43;;;19.10;61.40;;;;;;5059693;28;20501;-82
2021/12/15 10:58:38;;;;;;;19.73;12.80;;;19.10;61.40;;;;;;5059475;28;20469;-82
2021/12/15 11:01:40;;;;;;;20.00;13.13;;;19.10;61.30;;;;;;5059957;28;20533;-82
2021/12/15 11:04:49;;;;;;;20.27;13.53;;;19.10;61.30;;;;;;5059646;28;21002;-82
2021/12/15 11:07:20;;;;;;;18.10;12.87;;;19.10;61.30;;;;;;5055371;28;20478;-82
2021/12/15 11:09:50;;;;;;;18.30;13.00;;;19.10;61.50;;;;;;5059038;28;20474;-85
2021/12/15 11:12:20;;;;;;;21.57;14.00;;;19.20;61.20;;;;;;5057181;28;21004;-84
2021/12/15 11:14:52;;;;;;;18.90;12.73;;;19.20;61.40;;;;;;5058819;28;20461;-85
2021/12/15 11:17:23;;;;;;;18.63;12.60;;;19.20;61.20;;;;;;5059044;28;20449;-85
2021/12/15 11:20:00;;;;;;;16.93;12.03;;;19.30;61.30;;;;;;5058798;28;20517;-82
2021/12/15 11:22:40;;;;;;;19.70;12.80;;;19.40;61.20;;;;;;5058943;28;20458;-82
2021/12/15 11:25:10;;;;;;;21.37;13.90;;;19.40;61.20;;;;;;5059062;28;20478;-83
2021/12/15 11:27:39;;;;;;;17.60;12.03;;;19.50;61.10;;;;;;5058228;28;20562;-82
2021/12/15 11:30:12;;;;;;;20.03;11.70;;;19.40;60.90;;;;;;5053656;28;20478;-82
2021/12/15 11:32:42;;;;;;;21.43;12.40;;;19.40;60.80;;;;;;5058319;28;20477;-82
2021/12/15 11:35:15;;;;;;;16.80;12.17;;;19.40;60.70;;;;;;5058148;28;20435;-82
2021/12/15 11:37:48;;;;;;;17.43;12.63;;;19.40;60.80;;;;;;5058805;28;20526;-82
2021/12/15 11:40:17;;;;;;;16.70;12.30;;;19.40;61.00;;;;;;5058264;28;20778;-82
2021/12/15 11:42:45;;;;;;;18.93;12.13;;;19.40;60.90;;;;;;5058088;28;20934;-83
2021/12/15 11:45:15;;;;;;;16.73;12.30;;;19.30;60.80;;;;;;5054814;28;20482;-83
2021/12/15 11:47:43;;;;;;;15.80;11.50;;;19.30;60.90;;;;;;5057922;28;20548;-84
2021/12/15 11:50:12;;;;;;;19.20;12.83;;;19.40;60.90;;;;;;5058460;28;20481;-82
2021/12/15 11:52:42;;;;;;;16.53;12.87;;;19.40;61.00;;;;;;5058780;28;20458;-82
2021/12/15 11:55:25;;;;;;;18.70;12.13;;;19.30;61.00;;;;;;5058148;28;20510;-82
2021/12/15 11:57:53;;;;;;;16.30;11.47;;;19.40;61.00;;;;;;5057438;28;20426;-84
2021/12/15 12:00:25;;;;;;;17.00;11.57;;;19.50;61.10;;;;;;5057799;28;20885;-83
2021/12/15 12:02:54;;;;;;;16.30;11.87;;;19.50;60.80;;;;;;5050883;28;20470;-83
2021/12/15 12:05:25;;;;;;;14.57;11.40;;;19.50;60.80;;;;;;5057924;28;20441;-82
2021/12/15 12:07:54;;;;;;;15.67;10.90;;;19.50;60.70;;;;;;5058394;28;20470;-83
2021/12/15 12:10:27;;;;;;;14.80;10.97;;;19.50;60.70;;;;;;5057473;28;20461;-83
2021/12/15 12:13:03;;;;;;;15.87;11.70;;;19.50;60.50;;;;;;5057708;28;20537;-83
2021/12/15 12:15:33;;;;;;;12.50;10.20;;;19.50;60.80;;;;;;5054024;28;20513;-82
2021/12/15 12:18:03;;;;;;;16.17;11.43;;;19.60;60.90;;;;;;5052190;28;20453;-82
2021/12/15 12:20:33;;;;;;;18.57;12.17;;;19.60;60.90;;;;;;5057731;28;20537;-86
2021/12/15 12:23:02;;;;;;;15.93;10.87;;;19.60;60.80;;;;;;5057444;28;20542;-82
2021/12/15 12:25:33;;;;;;;13.23;10.17;;;19.60;60.70;;;;;;5057673;28;20517;-83
2021/12/15 12:28:01;;;;;;;17.37;11.10;;;19.60;60.60;;;;;;5056710;28;20514;-82
2021/12/15 12:30:33;;;;;;;16.17;11.67;;;19.60;60.70;;;;;;5057517;28;20466;-83
2021/12/15 12:33:01;;;;;;;13.83;10.30;;;19.60;60.60;;;;;;5057289;28;20459;-82
2021/12/15 12:35:31;;;;;;;15.20;10.40;;;19.60;60.60;;;;;;5053914;28;20541;-82
2021/12/15 12:38:00;;;;;;;13.40;9.67;;;19.60;60.50;;;;;;5057390;28;20537;-83
2021/12/15 12:40:31;;;;;;;12.50;10.17;;;19.60;60.70;;;;;;5057701;28;20513;-83
2021/12/15 12:42:59;;;;;;;11.90;9.10;;;19.50;60.60;;;;;;5051153;28;20538;-85
2021/12/15 12:45:34;;;;;;;14.27;11.03;;;19.60;60.60;;;;;;5048394;28;20523;-83
2021/12/15 12:48:34;;;;;;;15.30;10.50;;;19.50;60.50;;;;;;5037635;28;20540;-82
2021/12/15 12:59:28;;;;;;;13.23;9.93;;;19.50;60.50;;;;;;5057273;28;20534;-85
2021/12/15 13:01:56;;;;;;;13.43;9.20;;;19.50;60.70;;;;;;5057255;28;20528;-82
2021/12/15 13:04:41;;;;;;;12.33;9.53;;;19.50;60.70;;;;;;5057338;28;20477;-82
2021/12/15 13:07:09;;;;;;;11.33;9.10;;;19.50;60.50;;;;;;5055015;28;20501;-83
2021/12/15 13:09:48;;;;;;;12.37;10.00;;;19.60;60.70;;;;;;5055478;28;20458;-81
2021/12/15 13:12:24;;;;;;;14.13;10.03;;;19.50;60.50;;;;;;5057290;28;20469;-82
2021/12/15 13:14:54;;;;;;;12.73;9.97;;;19.50;60.60;;;;;;5056878;28;20473;-82
2021/12/15 13:17:26;;;;;;;11.80;8.90;;;19.50;60.70;;;;;;5057357;28;20466;-81
2021/12/15 13:19:55;;;;;;;11.63;9.20;;;19.50;60.70;;;;;;5057141;28;20427;-83
2021/12/15 13:22:34;;;;;;;11.60;9.60;;;19.50;60.50;;;;;;5053573;28;20469;-82
2021/12/15 13:31:11;;;;;;;14.03;10.00;;;19.50;60.70;;;;;;5034878;28;20446;-82
2021/12/15 13:33:45;;;;;;;12.10;9.00;;;19.40;60.40;;;;;;5033772;28;20479;-83
2021/12/15 13:36:14;;;;;;;14.83;10.30;;;19.40;60.60;;;;;;5035784;28;20444;-82
2021/12/15 13:38:43;;;;;;;14.07;9.43;;;19.40;60.60;;;;;;5055899;28;20454;-83
2021/12/15 13:41:26;;;;;;;11.23;8.43;;;19.40;60.60;;;;;;5058297;28;20438;-83
2021/12/15 13:44:06;;;;;;;12.40;9.10;;;19.40;60.50;;;;;;5057645;28;20457;-83
2021/12/15 13:46:41;;;;;;;14.00;9.37;;;19.40;60.40;;;;;;5043498;28;20422;-83
2021/12/15 13:49:40;;;;;;;12.70;10.20;;;19.40;60.30;;;;;;5058925;28;20410;-83
2021/12/15 13:52:15;;;;;;;13.70;8.83;;;19.50;60.30;;;;;;5057493;28;20517;-83
2021/12/15 13:55:05;;;;;;;11.93;9.13;;;19.40;60.20;;;;;;5054415;28;20471;-84
2021/12/15 13:57:37;;;;;;;11.67;9.17;;;19.40;60.40;;;;;;5041668;28;20431;-83
2021/12/15 14:00:18;;;;;;;14.30;9.70;;;19.40;60.30;;;;;;5051835;28;20529;-84
2021/12/15 14:02:56;;;;;;;11.27;8.40;;;19.40;60.30;;;;;;5063401;28;20435;-84
2021/12/15 14:05:27;;;;;;;15.00;9.97;;;19.40;60.30;;;;;;5069447;28;20415;-85
2021/12/15 14:07:59;;;;;;;12.33;9.13;;;19.40;60.30;;;;;;5053043;28;20534;-84